Collins, Ohio
Current Conditions -  °F | °C
As of 12:53 PM on Thursday 29 Jan 2015 (Local Time) from KLPR Reporting Station
Light Snow Light Snow  
Wind Chill: 25°   Ceiling: 3400
Heat Index: 34°   Visibility: 3mi
Dew Point: 31°   Wind: 12mph
Humidity: 89%   Direction: 190°S
Pressure: 29.75"   Gusts: NA
Location:  41.26°N, 82.49°W
Report Text: KLPR 291753Z AUTO 19010KT 3SM -SN BR OVC034 01/M01 A2975 RMK AO2 SNB18 SLP081 P0003 60003 T00111006 10022 21011 58025 TSNO
Loading
Personal Weather Stations






























Interactive Weather Map New forecast layout! Learn more

10-Day Weather Forecast

Advertisements
Track Severe Weather on mobile